sensor_id;sensor_type;location;lat;lon;timestamp;pressure;altitude;pressure_sealevel;temperature;humidity
141;BME280;65;48.778;9.160;2023-04-16T00:02:38;98450.34;;;7.25;100.00
141;BME280;65;48.778;9.160;2023-04-16T00:05:23;98444.47;;;7.20;100.00
141;BME280;65;48.778;9.160;2023-04-16T00:08:09;98444.47;;;7.20;100.00
141;BME280;65;48.778;9.160;2023-04-16T00:10:55;98452.06;;;7.26;100.00
141;BME280;65;48.778;9.160;2023-04-16T00:13:41;98449.44;;;7.26;100.00
141;BME280;65;48.778;9.160;2023-04-16T00:16:27;98455.75;;;7.22;100.00
141;BME280;65;48.778;9.160;2023-04-16T00:19:12;98455.63;;;7.25;100.00
141;BME280;65;48.778;9.160;2023-04-16T00:21:58;98452.78;;;7.29;100.00
141;BME280;65;48.778;9.160;2023-04-16T00:24:44;98462.44;;;7.29;100.00
141;BME280;65;48.778;9.160;2023-04-16T00:27:29;98450.22;;;7.28;100.00
141;BME280;65;48.778;9.160;2023-04-16T00:30:15;98454.47;;;7.30;100.00
141;BME280;65;48.778;9.160;2023-04-16T00:33:01;98455.53;;;7.26;100.00
141;BME280;65;48.778;9.160;2023-04-16T00:35:47;98455.53;;;7.26;100.00
141;BME280;65;48.778;9.160;2023-04-16T00:38:33;98453.06;;;7.23;100.00
141;BME280;65;48.778;9.160;2023-04-16T00:41:19;98454.69;;;7.26;100.00
141;BME280;65;48.778;9.160;2023-04-16T00:44:05;98459.03;;;7.27;100.00
141;BME280;65;48.778;9.160;2023-04-16T00:46:50;98463.50;;;7.25;100.00
141;BME280;65;48.778;9.160;2023-04-16T00:49:36;98459.16;;;7.24;100.00
141;BME280;65;48.778;9.160;2023-04-16T00:52:23;98459.31;;;7.21;100.00
141;BME280;65;48.778;9.160;2023-04-16T00:55:08;98454.91;;;7.21;100.00
141;BME280;65;48.778;9.160;2023-04-16T00:57:57;98459.09;;;7.25;100.00
141;BME280;65;48.778;9.160;2023-04-16T01:00:43;98457.53;;;7.21;100.00
141;BME280;65;48.778;9.160;2023-04-16T01:03:42;98454.63;;;7.27;100.00
141;BME280;65;48.778;9.160;2023-04-16T01:06:28;98456.59;;;7.22;100.00
141;BME280;65;48.778;9.160;2023-04-16T01:09:15;98461.88;;;7.22;100.00
141;BME280;65;48.778;9.160;2023-04-16T01:12:01;98457.47;;;7.23;100.00
141;BME280;65;48.778;9.160;2023-04-16T01:14:47;98463.56;;;7.23;100.00
141;BME280;65;48.778;9.160;2023-04-16T01:17:36;98468.69;;;7.26;100.00
141;BME280;65;48.778;9.160;2023-04-16T01:20:22;98467.63;;;7.30;100.00
141;BME280;65;48.778;9.160;2023-04-16T01:23:07;98462.28;;;7.32;100.00
141;BME280;65;48.778;9.160;2023-04-16T01:25:53;98466.84;;;7.28;100.00
141;BME280;65;48.778;9.160;2023-04-16T01:28:39;98467.41;;;7.35;100.00
141;BME280;65;48.778;9.160;2023-04-16T01:31:34;98464.94;;;7.32;100.00
141;BME280;65;48.778;9.160;2023-04-16T01:34:20;98467.97;;;7.23;100.00
141;BME280;65;48.778;9.160;2023-04-16T01:37:05;98468.69;;;7.26;100.00
141;BME280;65;48.778;9.160;2023-04-16T01:39:51;98473.03;;;7.27;100.00
141;BME280;65;48.778;9.160;2023-04-16T01:42:37;98466.84;;;7.28;100.00
141;BME280;65;48.778;9.160;2023-04-16T01:45:24;98470.41;;;7.27;100.00
141;BME280;65;48.778;9.160;2023-04-16T01:48:09;98478.94;;;7.33;100.00
141;BME280;65;48.778;9.160;2023-04-16T01:50:55;98478.28;;;7.27;100.00
141;BME280;65;48.778;9.160;2023-04-16T01:53:41;98469.63;;;7.25;100.00
141;BME280;65;48.778;9.160;2023-04-16T01:56:26;98477.34;;;7.28;100.00
141;BME280;65;48.778;9.160;2023-04-16T01:59:12;98473.03;;;7.27;100.00
141;BME280;65;48.778;9.160;2023-04-16T02:02:12;98473.03;;;7.27;100.00
141;BME280;65;48.778;9.160;2023-04-16T02:04:59;98475.59;;;7.29;100.00
141;BME280;65;48.778;9.160;2023-04-16T02:07:45;98469.75;;;7.22;100.00
141;BME280;65;48.778;9.160;2023-04-16T02:10:31;98471.53;;;7.22;100.00
141;BME280;65;48.778;9.160;2023-04-16T02:13:17;98473.31;;;7.21;100.00
141;BME280;65;48.778;9.160;2023-04-16T02:16:02;98466.97;;;7.25;100.00
141;BME280;65;48.778;9.160;2023-04-16T02:18:48;98472.38;;;7.22;100.00
141;BME280;65;48.778;9.160;2023-04-16T02:21:34;98483.59;;;7.26;100.00
141;BME280;65;48.778;9.160;2023-04-16T02:24:20;98474.22;;;7.20;100.00
141;BME280;65;48.778;9.160;2023-04-16T02:27:06;98481.13;;;7.23;100.00
141;BME280;65;48.778;9.160;2023-04-16T02:29:52;98476.00;;;7.20;100.00
141;BME280;65;48.778;9.160;2023-04-16T02:32:37;98491.41;;;7.27;100.00
141;BME280;65;48.778;9.160;2023-04-16T02:35:23;98474.72;;;7.28;100.00
141;BME280;65;48.778;9.160;2023-04-16T02:38:09;98482.69;;;7.27;100.00
141;BME280;65;48.778;9.160;2023-04-16T02:40:54;98487.88;;;7.28;100.00
141;BME280;65;48.778;9.160;2023-04-16T02:43:40;98476.66;;;7.25;100.00
141;BME280;65;48.778;9.160;2023-04-16T02:46:26;98484.47;;;7.26;100.00
141;BME280;65;48.778;9.160;2023-04-16T02:49:12;98479.34;;;7.23;100.00
141;BME280;65;48.778;9.160;2023-04-16T02:51:57;98482.75;;;7.25;100.00
141;BME280;65;48.778;9.160;2023-04-16T02:54:43;98484.47;;;7.26;100.00
141;BME280;65;48.778;9.160;2023-04-16T02:57:29;98480.19;;;7.24;100.00
141;BME280;65;48.778;9.160;2023-04-16T03:00:15;98481.84;;;7.26;100.00
141;BME280;65;48.778;9.160;2023-04-16T03:03:00;98493.53;;;7.19;100.00
141;BME280;65;48.778;9.160;2023-04-16T03:05:46;98489.34;;;7.15;100.00
141;BME280;65;48.778;9.160;2023-04-16T03:08:32;98491.84;;;7.18;100.00
141;BME280;65;48.778;9.160;2023-04-16T03:11:18;98480.53;;;7.16;100.00
141;BME280;65;48.778;9.160;2023-04-16T03:14:04;98483.25;;;7.15;100.00
141;BME280;65;48.778;9.160;2023-04-16T03:16:50;98499.00;;;7.15;100.00
141;BME280;65;48.778;9.160;2023-04-16T03:19:36;98488.56;;;7.13;100.00
141;BME280;65;48.778;9.160;2023-04-16T03:22:22;98493.69;;;7.16;100.00
141;BME280;65;48.778;9.160;2023-04-16T03:25:08;98496.25;;;7.18;100.00
141;BME280;65;48.778;9.160;2023-04-16T03:27:54;98496.09;;;7.21;100.00
141;BME280;65;48.778;9.160;2023-04-16T03:30:39;98498.09;;;7.16;100.00
141;BME280;65;48.778;9.160;2023-04-16T03:33:25;98494.03;;;7.09;100.00
141;BME280;65;48.778;9.160;2023-04-16T03:36:11;98497.38;;;7.12;100.00
141;BME280;65;48.778;9.160;2023-04-16T03:38:57;98500.28;;;7.06;100.00
141;BME280;65;48.778;9.160;2023-04-16T03:41:42;98500.13;;;7.09;100.00
141;BME280;65;48.778;9.160;2023-04-16T03:44:28;98505.31;;;7.11;100.00
141;BME280;65;48.778;9.160;2023-04-16T03:47:14;98507.88;;;7.12;100.00
141;BME280;65;48.778;9.160;2023-04-16T03:50:00;98501.78;;;7.12;100.00
141;BME280;65;48.778;9.160;2023-04-16T03:52:46;98513.00;;;7.15;100.00
141;BME280;65;48.778;9.160;2023-04-16T03:55:34;98512.44;;;7.09;100.00
141;BME280;65;48.778;9.160;2023-04-16T03:58:20;98520.50;;;7.04;100.00
141;BME280;65;48.778;9.160;2023-04-16T04:01:06;98519.25;;;7.13;100.00
141;BME280;65;48.778;9.160;2023-04-16T04:03:51;98512.94;;;7.17;100.00
141;BME280;65;48.778;9.160;2023-04-16T04:06:55;98515.13;;;7.07;100.00
141;BME280;65;48.778;9.160;2023-04-16T04:09:41;98519.59;;;7.05;100.00
141;BME280;65;48.778;9.160;2023-04-16T04:12:27;98520.38;;;7.07;100.00
141;BME280;65;48.778;9.160;2023-04-16T04:15:13;98515.91;;;7.09;100.00
141;BME280;65;48.778;9.160;2023-04-16T04:17:58;98524.06;;;7.03;100.00
141;BME280;65;48.778;9.160;2023-04-16T04:20:44;98525.91;;;7.01;100.00
141;BME280;65;48.778;9.160;2023-04-16T04:23:51;98530.38;;;6.99;100.00
141;BME280;65;48.778;9.160;2023-04-16T04:26:37;98525.75;;;7.04;100.00
141;BME280;65;48.778;9.160;2023-04-16T04:29:22;98533.44;;;7.09;100.00
141;BME280;65;48.778;9.160;2023-04-16T04:32:08;98537.66;;;7.13;100.00
141;BME280;65;48.778;9.160;2023-04-16T04:34:54;98537.66;;;7.13;100.00
141;BME280;65;48.778;9.160;2023-04-16T04:37:40;98546.53;;;7.10;100.00
141;BME280;65;48.778;9.160;2023-04-16T04:40:26;98544.47;;;7.17;100.00
141;BME280;65;48.778;9.160;2023-04-16T04:43:11;98541.19;;;7.12;100.00
141;BME280;65;48.778;9.160;2023-04-16T04:45:57;98544.53;;;7.15;100.00
141;BME280;65;48.778;9.160;2023-04-16T04:48:43;98551.72;;;7.12;100.00
141;BME280;65;48.778;9.160;2023-04-16T04:51:28;98551.84;;;7.09;100.00
141;BME280;65;48.778;9.160;2023-04-16T04:54:14;98553.69;;;7.07;100.00
141;BME280;65;48.778;9.160;2023-04-16T04:57:00;98560.78;;;7.05;100.00
141;BME280;65;48.778;9.160;2023-04-16T04:59:46;98560.72;;;7.06;100.00
141;BME280;65;48.778;9.160;2023-04-16T05:02:32;98554.47;;;7.09;100.00
141;BME280;65;48.778;9.160;2023-04-16T05:05:18;98563.13;;;7.11;100.00
141;BME280;65;48.778;9.160;2023-04-16T05:08:03;98567.47;;;7.12;100.00
141;BME280;65;48.778;9.160;2023-04-16T05:10:49;98581.66;;;7.08;100.00
141;BME280;65;48.778;9.160;2023-04-16T05:13:35;98579.91;;;7.08;100.00
141;BME280;65;48.778;9.160;2023-04-16T05:16:21;98587.78;;;7.08;100.00
141;BME280;65;48.778;9.160;2023-04-16T05:19:07;98581.94;;;7.02;100.00
141;BME280;65;48.778;9.160;2023-04-16T05:21:53;98578.59;;;6.98;100.00
141;BME280;65;48.778;9.160;2023-04-16T05:24:40;98587.25;;;7.00;100.00
141;BME280;65;48.778;9.160;2023-04-16T05:27:25;98591.59;;;7.01;100.00
141;BME280;65;48.778;9.160;2023-04-16T05:30:11;98603.81;;;7.02;100.00
141;BME280;65;48.778;9.160;2023-04-16T05:32:57;98600.25;;;7.03;100.00
141;BME280;65;48.778;9.160;2023-04-16T05:35:44;98602.03;;;7.03;100.00
141;BME280;65;48.778;9.160;2023-04-16T05:38:29;98601.00;;;7.07;100.00
141;BME280;65;48.778;9.160;2023-04-16T05:41:15;98601.78;;;7.09;100.00
141;BME280;65;48.778;9.160;2023-04-16T05:44:02;98603.88;;;7.01;100.00
141;BME280;65;48.778;9.160;2023-04-16T05:46:48;98614.31;;;7.02;100.00
141;BME280;65;48.778;9.160;2023-04-16T05:49:36;98617.09;;;6.99;100.00
141;BME280;65;48.778;9.160;2023-04-16T05:52:22;98616.03;;;7.03;100.00
141;BME280;65;48.778;9.160;2023-04-16T05:55:08;98615.13;;;7.04;100.00
141;BME280;65;48.778;9.160;2023-04-16T05:57:54;98614.91;;;7.09;100.00
141;BME280;65;48.778;9.160;2023-04-16T06:00:40;98620.09;;;7.10;100.00
141;BME280;65;48.778;9.160;2023-04-16T06:03:26;98627.13;;;7.10;100.00
141;BME280;65;48.778;9.160;2023-04-16T06:06:12;98620.09;;;7.10;100.00
141;BME280;65;48.778;9.160;2023-04-16T06:08:57;98626.94;;;7.14;100.00
141;BME280;65;48.778;9.160;2023-04-16T06:11:43;98621.69;;;7.14;100.00
141;BME280;65;48.778;9.160;2023-04-16T06:14:29;98626.03;;;7.15;100.00
141;BME280;65;48.778;9.160;2023-04-16T06:17:15;98631.28;;;7.15;100.00
141;BME280;65;48.778;9.160;2023-04-16T06:20:01;98632.00;;;7.19;100.00
141;BME280;65;48.778;9.160;2023-04-16T06:22:46;98631.94;;;7.20;100.00
141;BME280;65;48.778;9.160;2023-04-16T06:25:32;98626.53;;;7.23;100.00
141;BME280;65;48.778;9.160;2023-04-16T06:28:18;98636.22;;;7.23;100.00
141;BME280;65;48.778;9.160;2023-04-16T06:31:04;98636.22;;;7.23;100.00
141;BME280;65;48.778;9.160;2023-04-16T06:33:50;98641.06;;;7.32;100.00
141;BME280;65;48.778;9.160;2023-04-16T06:36:35;98643.56;;;7.35;100.00
141;BME280;65;48.778;9.160;2023-04-16T06:39:22;98634.81;;;7.35;100.00
141;BME280;65;48.778;9.160;2023-04-16T06:42:07;98635.16;;;7.27;100.00
141;BME280;65;48.778;9.160;2023-04-16T06:44:53;98640.63;;;7.22;100.00
141;BME280;65;48.778;9.160;2023-04-16T06:47:39;98639.63;;;7.25;100.00
141;BME280;65;48.778;9.160;2023-04-16T06:50:25;98643.19;;;7.24;100.00
141;BME280;65;48.778;9.160;2023-04-16T06:53:11;98647.56;;;7.23;100.00
141;BME280;65;48.778;9.160;2023-04-16T06:55:57;98652.69;;;7.26;100.00
141;BME280;65;48.778;9.160;2023-04-16T06:58:42;98649.03;;;7.30;100.00
141;BME280;65;48.778;9.160;2023-04-16T07:01:28;98646.78;;;7.21;100.00
141;BME280;65;48.778;9.160;2023-04-16T07:04:15;98654.22;;;7.32;100.00
141;BME280;65;48.778;9.160;2023-04-16T07:07:01;98660.41;;;7.31;100.00
141;BME280;65;48.778;9.160;2023-04-16T07:09:47;98658.56;;;7.33;100.00
141;BME280;65;48.778;9.160;2023-04-16T07:12:32;98660.31;;;7.33;100.00
141;BME280;65;48.778;9.160;2023-04-16T07:15:18;98661.25;;;7.32;100.00
141;BME280;65;48.778;9.160;2023-04-16T07:18:04;98657.56;;;7.36;100.00
141;BME280;65;48.778;9.160;2023-04-16T07:20:50;98656.25;;;7.46;100.00
141;BME280;65;48.778;9.160;2023-04-16T07:23:35;98666.78;;;7.46;100.00
141;BME280;65;48.778;9.160;2023-04-16T07:26:21;98673.25;;;7.59;100.00
141;BME280;65;48.778;9.160;2023-04-16T07:29:07;98663.50;;;7.61;100.00
141;BME280;65;48.778;9.160;2023-04-16T07:31:53;98672.50;;;7.76;100.00
141;BME280;65;48.778;9.160;2023-04-16T07:34:38;98669.78;;;7.77;100.00
141;BME280;65;48.778;9.160;2023-04-16T07:37:24;98670.66;;;7.78;100.00
141;BME280;65;48.778;9.160;2023-04-16T07:40:10;98671.78;;;7.72;100.00
141;BME280;65;48.778;9.160;2023-04-16T07:42:56;98685.19;;;7.66;100.00
141;BME280;65;48.778;9.160;2023-04-16T07:45:42;98674.94;;;7.60;100.00
141;BME280;65;48.778;9.160;2023-04-16T07:48:27;98684.00;;;7.73;100.00
141;BME280;65;48.778;9.160;2023-04-16T07:51:13;98683.88;;;7.76;100.00
141;BME280;65;48.778;9.160;2023-04-16T07:54:00;98690.44;;;7.86;100.00
141;BME280;65;48.778;9.160;2023-04-16T07:56:46;98687.88;;;7.85;100.00
141;BME280;65;48.778;9.160;2023-04-16T07:59:32;98700.59;;;7.75;100.00
141;BME280;65;48.778;9.160;2023-04-16T08:02:18;98691.63;;;7.79;100.00
141;BME280;65;48.778;9.160;2023-04-16T08:05:04;98697.00;;;7.97;100.00
141;BME280;65;48.778;9.160;2023-04-16T08:07:50;98706.88;;;8.12;100.00
141;BME280;65;48.778;9.160;2023-04-16T08:10:36;98712.31;;;8.07;100.00
141;BME280;65;48.778;9.160;2023-04-16T08:13:22;98710.28;;;7.93;100.00
141;BME280;65;48.778;9.160;2023-04-16T08:16:08;98706.50;;;7.80;100.00
141;BME280;65;48.778;9.160;2023-04-16T08:18:54;98712.03;;;7.74;100.00
141;BME280;65;48.778;9.160;2023-04-16T08:21:40;98718.34;;;7.70;100.00
141;BME280;65;48.778;9.160;2023-04-16T08:24:25;98715.13;;;7.64;100.00
141;BME280;65;48.778;9.160;2023-04-16T08:27:11;98717.28;;;7.74;100.00
141;BME280;65;48.778;9.160;2023-04-16T08:29:57;98720.72;;;7.76;100.00
141;BME280;65;48.778;9.160;2023-04-16T08:32:43;98726.56;;;7.83;100.00
141;BME280;65;48.778;9.160;2023-04-16T08:35:28;98730.09;;;7.82;100.00
141;BME280;65;48.778;9.160;2023-04-16T08:38:14;98734.84;;;7.94;100.00
141;BME280;65;48.778;9.160;2023-04-16T08:41:05;98737.94;;;7.83;100.00
141;BME280;65;48.778;9.160;2023-04-16T08:43:52;98745.28;;;7.96;100.00
141;BME280;65;48.778;9.160;2023-04-16T08:46:40;98742.53;;;7.99;100.00
141;BME280;65;48.778;9.160;2023-04-16T08:49:26;98743.03;;;8.07;100.00
141;BME280;65;48.778;9.160;2023-04-16T08:52:15;98743.78;;;7.90;100.00
141;BME280;65;48.778;9.160;2023-04-16T08:55:05;98744.13;;;7.82;100.00
141;BME280;65;48.778;9.160;2023-04-16T08:57:53;98748.19;;;7.89;100.00
141;BME280;65;48.778;9.160;2023-04-16T09:00:42;98743.97;;;8.06;100.00
141;BME280;65;48.778;9.160;2023-04-16T09:03:31;98749.63;;;7.97;100.00
141;BME280;65;48.778;9.160;2023-04-16T09:06:17;98754.13;;;7.94;100.00
141;BME280;65;48.778;9.160;2023-04-16T09:09:03;98754.63;;;8.03;100.00
141;BME280;65;48.778;9.160;2023-04-16T09:11:50;98750.94;;;8.07;100.00
141;BME280;65;48.778;9.160;2023-04-16T09:14:37;98758.91;;;8.25;100.00
141;BME280;65;48.778;9.160;2023-04-16T09:17:26;98756.91;;;8.51;100.00
141;BME280;65;48.778;9.160;2023-04-16T09:20:14;98763.19;;;8.67;100.00
141;BME280;65;48.778;9.160;2023-04-16T09:23:00;98762.25;;;8.87;100.00
141;BME280;65;48.778;9.160;2023-04-16T09:25:46;98765.72;;;9.06;100.00
141;BME280;65;48.778;9.160;2023-04-16T09:28:45;98757.91;;;8.86;100.00
141;BME280;65;48.778;9.160;2023-04-16T09:31:31;98760.97;;;8.77;100.00
141;BME280;65;48.778;9.160;2023-04-16T09:34:17;98763.47;;;8.80;100.00
141;BME280;65;48.778;9.160;2023-04-16T09:37:16;98770.31;;;8.84;100.00
141;BME280;65;48.778;9.160;2023-04-16T09:40:03;98763.31;;;9.02;100.00
141;BME280;65;48.778;9.160;2023-04-16T09:42:50;98761.75;;;8.79;100.00
141;BME280;65;48.778;9.160;2023-04-16T09:45:50;98769.03;;;8.93;100.00
141;BME280;65;48.778;9.160;2023-04-16T09:48:36;98773.72;;;9.05;100.00
141;BME280;65;48.778;9.160;2023-04-16T09:51:22;98774.94;;;8.98;100.00
141;BME280;65;48.778;9.160;2023-04-16T09:54:10;98779.00;;;8.86;100.00
141;BME280;65;48.778;9.160;2023-04-16T09:56:56;98777.66;;;8.77;100.00
141;BME280;65;48.778;9.160;2023-04-16T09:59:42;98780.91;;;8.64;100.00
141;BME280;65;48.778;9.160;2023-04-16T10:02:28;98782.53;;;8.47;100.00
141;BME280;65;48.778;9.160;2023-04-16T10:05:14;98786.44;;;8.57;100.00
141;BME280;65;48.778;9.160;2023-04-16T10:08:13;98791.94;;;8.53;100.00
141;BME280;65;48.778;9.160;2023-04-16T10:10:59;98789.63;;;8.45;100.00
141;BME280;65;48.778;9.160;2023-04-16T10:13:45;98801.59;;;8.52;100.00
141;BME280;65;48.778;9.160;2023-04-16T10:16:31;98787.72;;;8.49;100.00
141;BME280;65;48.778;9.160;2023-04-16T10:19:18;98800.69;;;8.53;100.00
141;BME280;65;48.778;9.160;2023-04-16T10:22:05;98795.13;;;8.41;100.00
141;BME280;65;48.778;9.160;2023-04-16T10:24:51;98796.06;;;8.59;100.00
141;BME280;65;48.778;9.160;2023-04-16T10:27:38;98806.38;;;8.63;100.00
141;BME280;65;48.778;9.160;2023-04-16T10:30:25;98798.97;;;8.52;100.00
141;BME280;65;48.778;9.160;2023-04-16T10:33:11;98810.88;;;8.61;100.00
141;BME280;65;48.778;9.160;2023-04-16T10:36:07;98807.94;;;8.87;100.00
141;BME280;65;48.778;9.160;2023-04-16T10:38:59;98802.50;;;8.91;100.00
141;BME280;65;48.778;9.160;2023-04-16T10:41:45;98811.63;;;8.83;100.00
141;BME280;65;48.778;9.160;2023-04-16T10:44:31;98803.16;;;8.96;100.00
141;BME280;65;48.778;9.160;2023-04-16T10:47:17;98803.06;;;9.16;100.00
141;BME280;65;48.778;9.160;2023-04-16T10:50:14;98800.06;;;9.24;100.00
141;BME280;65;48.778;9.160;2023-04-16T10:53:19;98802.06;;;9.18;100.00
141;BME280;65;48.778;9.160;2023-04-16T10:58:53;98807.34;;;8.81;100.00
141;BME280;65;48.778;9.160;2023-04-16T11:01:45;98800.97;;;8.66;100.00
141;BME280;65;48.778;9.160;2023-04-16T11:07:32;98808.56;;;8.74;100.00
141;BME280;65;48.778;9.160;2023-04-16T11:10:18;98807.34;;;8.81;100.00
141;BME280;65;48.778;9.160;2023-04-16T11:13:05;98808.22;;;8.81;100.00
141;BME280;65;48.778;9.160;2023-04-16T11:15:50;98815.03;;;8.85;100.00
141;BME280;65;48.778;9.160;2023-04-16T11:18:40;98809.72;;;8.87;100.00
141;BME280;65;48.778;9.160;2023-04-16T11:21:26;98814.63;;;8.95;100.00
141;BME280;65;48.778;9.160;2023-04-16T11:24:13;98809.19;;;8.98;100.00
141;BME280;65;48.778;9.160;2023-04-16T11:26:59;98811.41;;;8.88;100.00
141;BME280;65;48.778;9.160;2023-04-16T11:29:55;98818.56;;;8.66;100.00
141;BME280;65;48.778;9.160;2023-04-16T11:32:43;98817.47;;;8.71;100.00
141;BME280;65;48.778;9.160;2023-04-16T11:35:29;98812.75;;;8.78;100.00
141;BME280;65;48.778;9.160;2023-04-16T11:38:17;98816.19;;;8.80;100.00
141;BME280;65;48.778;9.160;2023-04-16T11:41:03;98812.47;;;8.84;100.00
141;BME280;65;48.778;9.160;2023-04-16T11:43:48;98818.75;;;9.00;100.00
141;BME280;65;48.778;9.160;2023-04-16T11:46:38;98819.31;;;9.07;100.00
141;BME280;65;48.778;9.160;2023-04-16T11:49:28;98821.72;;;9.11;100.00
141;BME280;65;48.778;9.160;2023-04-16T11:52:31;98816.38;;;9.13;100.00
141;BME280;65;48.778;9.160;2023-04-16T11:55:18;98815.88;;;9.24;100.00
141;BME280;65;48.778;9.160;2023-04-16T11:58:13;98817.03;;;9.37;100.00
141;BME280;65;48.778;9.160;2023-04-16T12:01:02;98815.53;;;9.31;100.00
141;BME280;65;48.778;9.160;2023-04-16T12:03:48;98818.09;;;9.33;100.00
141;BME280;65;48.778;9.160;2023-04-16T12:06:34;98823.31;;;8.97;100.00
141;BME280;65;48.778;9.160;2023-04-16T12:09:25;98827.72;;;8.77;100.00
141;BME280;65;48.778;9.160;2023-04-16T12:12:30;98826.88;;;8.77;100.00
141;BME280;65;48.778;9.160;2023-04-16T12:15:16;98826.09;;;8.75;100.00
141;BME280;65;48.778;9.160;2023-04-16T12:18:06;98827.44;;;8.83;100.00
141;BME280;65;48.778;9.160;2023-04-16T12:20:52;98836.13;;;8.85;100.00
141;BME280;65;48.778;9.160;2023-04-16T12:23:38;98833.50;;;8.85;100.00
141;BME280;65;48.778;9.160;2023-04-16T12:26:24;98833.13;;;8.93;100.00
141;BME280;65;48.778;9.160;2023-04-16T12:29:18;98830.84;;;9.04;100.00
141;BME280;65;48.778;9.160;2023-04-16T12:32:04;98838.34;;;9.13;100.00
141;BME280;65;48.778;9.160;2023-04-16T12:35:05;98837.84;;;9.05;100.00
141;BME280;65;48.778;9.160;2023-04-16T12:37:51;98828.72;;;8.94;100.00
141;BME280;65;48.778;9.160;2023-04-16T12:40:37;98837.13;;;8.83;100.00
141;BME280;65;48.778;9.160;2023-04-16T12:43:23;98839.25;;;8.75;100.00
141;BME280;65;48.778;9.160;2023-04-16T12:46:09;98841.19;;;8.51;100.00
141;BME280;65;48.778;9.160;2023-04-16T12:48:55;98838.34;;;8.55;100.00
141;BME280;65;48.778;9.160;2023-04-16T12:51:42;98840.06;;;8.56;100.00
141;BME280;65;48.778;9.160;2023-04-16T12:54:27;98838.22;;;8.59;100.00
141;BME280;65;48.778;9.160;2023-04-16T12:57:18;98838.34;;;8.55;100.00
141;BME280;65;48.778;9.160;2023-04-16T13:00:04;98838.34;;;8.55;100.00
141;BME280;65;48.778;9.160;2023-04-16T13:02:51;98838.34;;;8.76;100.00
141;BME280;65;48.778;9.160;2023-04-16T13:05:36;98840.13;;;8.75;100.00
141;BME280;65;48.778;9.160;2023-04-16T13:08:22;98838.78;;;8.85;100.00
141;BME280;65;48.778;9.160;2023-04-16T13:11:08;98840.84;;;8.79;100.00
141;BME280;65;48.778;9.160;2023-04-16T13:13:54;98836.38;;;8.61;100.00
141;BME280;65;48.778;9.160;2023-04-16T13:16:40;98830.78;;;8.48;100.00
141;BME280;65;48.778;9.160;2023-04-16T13:19:25;98837.28;;;8.60;100.00
141;BME280;65;48.778;9.160;2023-04-16T13:22:11;98832.50;;;8.69;100.00
141;BME280;65;48.778;9.160;2023-04-16T13:24:57;98825.75;;;8.62;100.00
141;BME280;65;48.778;9.160;2023-04-16T13:27:43;98831.63;;;8.69;100.00
141;BME280;65;48.778;9.160;2023-04-16T13:30:28;98831.50;;;8.72;100.00
141;BME280;65;48.778;9.160;2023-04-16T13:33:14;98823.97;;;8.63;100.00
141;BME280;65;48.778;9.160;2023-04-16T13:36:00;98831.44;;;8.53;100.00
141;BME280;65;48.778;9.160;2023-04-16T13:38:46;98833.16;;;8.54;100.00
141;BME280;65;48.778;9.160;2023-04-16T13:41:32;98839.66;;;8.66;100.00
141;BME280;65;48.778;9.160;2023-04-16T13:44:17;98844.53;;;8.75;100.00
141;BME280;65;48.778;9.160;2023-04-16T13:47:03;98838.47;;;8.73;100.00
141;BME280;65;48.778;9.160;2023-04-16T13:49:49;98846.09;;;8.79;100.00
141;BME280;65;48.778;9.160;2023-04-16T13:52:35;98847.81;;;8.80;100.00
141;BME280;65;48.778;9.160;2023-04-16T13:55:21;98843.81;;;8.71;100.00
141;BME280;65;48.778;9.160;2023-04-16T13:58:07;98841.78;;;8.57;100.00
141;BME280;65;48.778;9.160;2023-04-16T14:00:53;98835.91;;;8.51;100.00
141;BME280;65;48.778;9.160;2023-04-16T14:03:39;98844.63;;;8.53;100.00
141;BME280;65;48.778;9.160;2023-04-16T14:06:26;98833.44;;;8.48;100.00
141;BME280;65;48.778;9.160;2023-04-16T14:09:12;98840.19;;;8.53;100.00
141;BME280;65;48.778;9.160;2023-04-16T14:11:58;98839.13;;;8.57;100.00
141;BME280;65;48.778;9.160;2023-04-16T14:14:43;98843.34;;;8.62;100.00
141;BME280;65;48.778;9.160;2023-04-16T14:17:29;98841.84;;;8.56;100.00
141;BME280;65;48.778;9.160;2023-04-16T14:20:15;98838.34;;;8.55;100.00
141;BME280;65;48.778;9.160;2023-04-16T14:23:01;98846.13;;;8.59;100.00
141;BME280;65;48.778;9.160;2023-04-16T14:25:47;98839.53;;;8.69;100.00
141;BME280;65;48.778;9.160;2023-04-16T14:28:33;98843.88;;;8.70;100.00
141;BME280;65;48.778;9.160;2023-04-16T14:31:20;98840.25;;;8.72;100.00
141;BME280;65;48.778;9.160;2023-04-16T14:34:05;98842.97;;;8.71;100.00
141;BME280;65;48.778;9.160;2023-04-16T14:36:51;98845.25;;;8.58;100.00
141;BME280;65;48.778;9.160;2023-04-16T14:39:37;98838.63;;;8.49;100.00
141;BME280;65;48.778;9.160;2023-04-16T14:42:23;98831.56;;;8.50;100.00
141;BME280;65;48.778;9.160;2023-04-16T14:45:09;98840.28;;;8.52;100.00
141;BME280;65;48.778;9.160;2023-04-16T14:47:55;98839.41;;;8.51;100.00
141;BME280;65;48.778;9.160;2023-04-16T14:50:41;98837.97;;;8.44;100.00
141;BME280;65;48.778;9.160;2023-04-16T14:53:28;98837.06;;;8.45;100.00
141;BME280;65;48.778;9.160;2023-04-16T14:56:14;98839.88;;;8.41;100.00
141;BME280;65;48.778;9.160;2023-04-16T14:59:00;98838.69;;;8.48;100.00
141;BME280;65;48.778;9.160;2023-04-16T15:01:45;98842.31;;;8.45;100.00
141;BME280;65;48.778;9.160;2023-04-16T15:04:31;98848.50;;;8.44;100.00
141;BME280;65;48.778;9.160;2023-04-16T15:07:17;98848.09;;;8.53;100.00
141;BME280;65;48.778;9.160;2023-04-16T15:10:03;98846.13;;;8.59;100.00
141;BME280;65;48.778;9.160;2023-04-16T15:12:49;98845.91;;;8.63;100.00
141;BME280;65;48.778;9.160;2023-04-16T15:15:34;98853.75;;;8.65;100.00
141;BME280;65;48.778;9.160;2023-04-16T15:18:20;98847.44;;;8.69;100.00
141;BME280;65;48.778;9.160;2023-04-16T15:21:06;98846.38;;;8.73;100.00
141;BME280;65;48.778;9.160;2023-04-16T15:23:52;98855.78;;;8.78;100.00
141;BME280;65;48.778;9.160;2023-04-16T15:26:38;98852.44;;;8.75;100.00
141;BME280;65;48.778;9.160;2023-04-16T15:29:24;98849.25;;;8.67;100.00
141;BME280;65;48.778;9.160;2023-04-16T15:32:09;98848.47;;;8.65;100.00
141;BME280;65;48.778;9.160;2023-04-16T15:34:55;98854.53;;;8.67;100.00
141;BME280;65;48.778;9.160;2023-04-16T15:37:41;98855.22;;;8.72;100.00
141;BME280;65;48.778;9.160;2023-04-16T15:40:27;98861.47;;;8.69;100.00
141;BME280;65;48.778;9.160;2023-04-16T15:43:14;98860.63;;;8.69;100.00
141;BME280;65;48.778;9.160;2023-04-16T15:46:00;98852.88;;;8.64;100.00
141;BME280;65;48.778;9.160;2023-04-16T15:48:46;98858.38;;;8.60;100.00
141;BME280;65;48.778;9.160;2023-04-16T15:51:32;98854.88;;;8.59;100.00
141;BME280;65;48.778;9.160;2023-04-16T15:54:18;98854.09;;;8.57;100.00